Time;durP1;ratioP1;P1;durP2;ratioP2;P2;SDS_P1;SDS_P2;PMS_P1;PMS_P2;Temp;Humidity;BMP_temperature;BMP_pressure;BME280_temperature;BME280_humidity;BME280_pressure;Samples;Min_cycle;Max_cycle;Signal;HPM_P1;HPM_P2
2021/05/12 00:00:26;;;;;;;6.32;4.70;;;;;17.40;100903.00;;;;5022193;28;20628;-81
2021/05/12 00:02:53;;;;;;;6.53;4.43;;;;;17.40;100908.00;;;;5030094;28;20200;-83
2021/05/12 00:05:22;;;;;;;6.72;4.47;;;;;17.30;100900.00;;;;5014526;28;20197;-82
2021/05/12 00:08:07;;;;;;;6.30;4.25;;;;;17.30;100903.00;;;;5026133;28;20318;-82
2021/05/12 00:13:57;;;;;;;4.15;3.55;;;;;17.30;100903.00;;;;5026558;28;20203;-83
2021/05/12 00:16:42;;;;;;;5.45;4.45;;;;;17.10;100902.00;;;;5017176;28;20188;-82
2021/05/12 00:19:09;;;;;;;7.45;4.47;;;;;17.20;100908.00;;;;5025917;28;20306;-83
2021/05/12 00:21:41;;;;;;;4.68;4.18;;;;;17.20;100906.00;;;;5028142;28;20196;-83
2021/05/12 00:24:08;;;;;;;5.75;4.10;;;;;17.20;100903.00;;;;5022067;28;20682;-82
2021/05/12 00:26:54;;;;;;;5.85;4.10;;;;;17.10;100903.00;;;;5027693;28;20192;-82
2021/05/12 00:29:21;;;;;;;4.88;3.50;;;;;17.10;100900.00;;;;5023864;28;20204;-82
2021/05/12 00:31:48;;;;;;;5.10;3.25;;;;;17.10;100917.00;;;;5027777;28;20670;-83
2021/05/12 00:37:55;;;;;;;5.30;3.58;;;;;17.00;100907.00;;;;5027122;28;20265;-83
2021/05/12 00:40:22;;;;;;;5.60;3.28;;;;;17.00;100904.00;;;;5017600;28;20267;-83
2021/05/12 00:43:08;;;;;;;4.15;3.58;;;;;16.90;100898.00;;;;5028608;28;20212;-82
2021/05/12 00:45:53;;;;;;;4.78;3.72;;;;;17.00;100903.00;;;;5027232;28;20340;-82
2021/05/12 00:54:28;;;;;;;4.13;2.90;;;;;16.80;100907.00;;;;5013054;28;20219;-83
2021/05/12 01:05:34;;;;;;;3.78;3.30;;;;;16.70;100914.00;;;;5025815;28;20250;-83
2021/05/12 01:08:19;;;;;;;4.18;3.50;;;;;16.80;100911.00;;;;5018407;28;20223;-83
2021/05/12 01:10:47;;;;;;;3.92;3.47;;;;;16.70;100917.00;;;;5011057;28;20205;-83
2021/05/12 01:13:33;;;;;;;5.35;3.40;;;;;16.70;100921.00;;;;5015222;28;20192;-82
2021/05/12 01:16:00;;;;;;;4.38;3.25;;;;;16.70;100916.00;;;;5020947;28;20653;-82
2021/05/12 01:21:14;;;;;;;7.72;3.45;;;;;16.70;100921.00;;;;5020298;28;20248;-82
2021/05/12 01:29:30;;;;;;;4.85;3.45;;;;;16.70;100927.00;;;;5018446;28;20250;-82
2021/05/12 01:37:51;;;;;;;4.75;3.53;;;;;16.70;100936.00;;;;5008794;28;20211;-82
2021/05/12 01:40:18;;;;;;;3.67;3.15;;;;;16.80;100923.00;;;;5018628;28;20196;-83
2021/05/12 01:42:45;;;;;;;5.93;3.10;;;;;16.80;100930.00;;;;5010849;28;20204;-83
2021/05/12 01:48:17;;;;;;;5.32;3.50;;;;;16.80;100929.00;;;;5026933;28;20698;-82
2021/05/12 01:51:02;;;;;;;4.60;4.13;;;;;16.70;100926.00;;;;5015554;28;20220;-82
2021/05/12 01:54:07;;;;;;;3.13;2.63;;;;;16.70;100928.00;;;;5029781;28;20196;-82
2021/05/12 01:56:35;;;;;;;5.32;3.47;;;;;16.80;100923.00;;;;5020281;28;20226;-82
2021/05/12 01:59:02;;;;;;;9.55;4.30;;;;;16.80;100919.00;;;;5029723;28;20200;-82
2021/05/12 02:01:29;;;;;;;5.50;4.20;;;;;16.80;100923.00;;;;5024079;28;20316;-82
2021/05/12 02:03:56;;;;;;;4.80;3.92;;;;;16.80;100928.00;;;;5030593;28;20670;-82
2021/05/12 02:09:26;;;;;;;4.63;3.25;;;;;16.80;100927.00;;;;5024792;28;20211;-82
2021/05/12 02:11:53;;;;;;;5.35;3.80;;;;;16.80;100926.00;;;;5030925;28;20254;-82
2021/05/12 02:14:39;;;;;;;4.95;3.13;;;;;16.70;100929.00;;;;5030333;28;20697;-82
2021/05/12 02:22:35;;;;;;;6.05;3.60;;;;;16.80;100917.00;;;;5011911;28;20263;-82
2021/05/12 02:25:02;;;;;;;5.57;3.90;;;;;16.70;100908.00;;;;5010741;28;20235;-82
2021/05/12 02:27:30;;;;;;;4.65;3.70;;;;;16.70;100906.00;;;;5011570;28;20233;-82
2021/05/12 02:32:42;;;;;;;9.02;3.95;;;;;16.70;100914.00;;;;5021741;28;20231;-82
2021/05/12 02:35:28;;;;;;;5.40;3.95;;;;;16.70;100913.00;;;;5028309;28;20196;-83
2021/05/12 02:38:14;;;;;;;5.75;4.03;;;;;16.60;100922.00;;;;5030151;28;20674;-82
2021/05/12 02:40:41;;;;;;;5.85;4.20;;;;;16.70;100910.00;;;;5019817;28;20192;-83
2021/05/12 02:43:08;;;;;;;4.68;3.85;;;;;16.70;100913.00;;;;5024432;28;20199;-82
2021/05/12 02:45:35;;;;;;;5.43;4.50;;;;;16.60;100911.00;;;;5025238;28;20645;-83
2021/05/12 02:48:04;;;;;;;4.57;3.88;;;;;16.60;100910.00;;;;5022783;28;20228;-82
2021/05/12 02:50:33;;;;;;;6.00;4.45;;;;;16.60;100915.00;;;;5030623;28;20670;-82
2021/05/12 02:53:21;;;;;;;6.78;4.07;;;;;16.50;100917.00;;;;5026047;28;20200;-82
2021/05/12 02:56:06;;;;;;;4.65;4.15;;;;;16.60;100914.00;;;;5027962;28;20211;-82
2021/05/12 02:58:34;;;;;;;5.68;4.28;;;;;16.50;100914.00;;;;5024630;28;20200;-82
2021/05/12 03:01:20;;;;;;;5.03;3.70;;;;;16.40;100906.00;;;;5028211;28;20258;-82
2021/05/12 03:04:05;;;;;;;6.53;3.80;;;;;16.40;100909.00;;;;5022619;28;20702;-82
2021/05/12 03:09:35;;;;;;;4.55;4.05;;;;;16.40;100941.00;;;;5020950;28;20317;-82
2021/05/12 03:12:21;;;;;;;6.43;4.32;;;;;16.30;100919.00;;;;5015447;28;20193;-82
2021/05/12 03:15:25;;;;;;;4.85;3.97;;;;;16.20;100943.00;;;;5016686;28;20658;-83
2021/05/12 03:20:57;;;;;;;5.50;4.35;;;;;16.30;100930.00;;;;5009658;28;20596;-82
2021/05/12 03:23:42;;;;;;;6.55;4.97;;;;;16.10;100929.00;;;;5009685;28;20193;-82
2021/05/12 03:26:27;;;;;;;7.43;5.95;;;;;16.10;100935.00;;;;5023486;28;20200;-81
2021/05/12 03:29:13;;;;;;;6.45;5.22;;;;;16.20;100926.00;;;;5027108;28;20254;-82
2021/05/12 03:31:40;;;;;;;6.10;4.85;;;;;16.20;100928.00;;;;5014250;28;20208;-82
2021/05/12 03:34:07;;;;;;;6.95;4.35;;;;;16.10;100936.00;;;;5016945;28;20225;-82
2021/05/12 03:36:34;;;;;;;5.80;4.68;;;;;16.20;100940.00;;;;5021732;28;20192;-81
2021/05/12 03:39:19;;;;;;;6.38;5.22;;;;;16.00;100932.00;;;;5021247;28;20196;-82
2021/05/12 03:44:31;;;;;;;5.15;4.35;;;;;16.10;100944.00;;;;5018824;28;20263;-82
2021/05/12 03:46:58;;;;;;;6.70;5.03;;;;;16.00;100947.00;;;;5022359;28;20200;-82
2021/05/12 03:50:02;;;;;;;5.90;4.60;;;;;15.90;100946.00;;;;5009243;28;20212;-81
2021/05/12 03:52:30;;;;;;;5.50;4.05;;;;;16.00;100947.00;;;;5017180;28;20216;-82
2021/05/12 03:54:57;;;;;;;4.95;4.03;;;;;16.00;100944.00;;;;5020854;28;20203;-81
2021/05/12 03:58:01;;;;;;;5.47;4.80;;;;;15.80;100937.00;;;;5019482;28;20220;-82
2021/05/12 04:06:16;;;;;;;5.53;4.55;;;;;15.90;100943.00;;;;5022601;28;20199;-81
2021/05/12 04:09:02;;;;;;;7.28;4.68;;;;;15.70;100936.00;;;;5027579;28;20224;-82
2021/05/12 04:11:48;;;;;;;5.32;4.60;;;;;15.70;100936.00;;;;5027965;28;20567;-81
2021/05/12 04:17:37;;;;;;;5.22;4.55;;;;;15.70;100940.00;;;;5025697;28;20203;-82
2021/05/12 04:20:23;;;;;;;4.95;4.15;;;;;15.70;100942.00;;;;5010722;28;20229;-82
2021/05/12 04:23:08;;;;;;;6.15;4.28;;;;;15.60;100935.00;;;;5021613;28;20277;-81
2021/05/12 04:25:36;;;;;;;7.43;4.45;;;;;15.70;100936.00;;;;5029587;28;20204;-81
2021/05/12 04:28:03;;;;;;;6.75;5.22;;;;;15.70;100936.00;;;;5015251;28;20563;-79
2021/05/12 04:30:31;;;;;;;8.90;5.70;;;;;15.70;100953.00;;;;5025305;28;20205;-83
2021/05/12 04:36:02;;;;;;;6.80;4.88;;;;;15.60;100957.00;;;;5028507;28;20202;-84
2021/05/12 04:38:29;;;;;;;5.82;4.10;;;;;15.60;100955.00;;;;5017062;28;20211;-83
2021/05/12 04:41:17;;;;;;;6.80;5.40;;;;;15.60;100956.00;;;;5024497;28;20192;-83
2021/05/12 04:46:49;;;;;;;6.30;4.35;;;;;15.50;100959.00;;;;5027198;28;20258;-83
2021/05/12 04:49:17;;;;;;;5.70;4.72;;;;;15.60;100956.00;;;;5023752;28;20600;-83
2021/05/12 04:51:43;;;;;;;7.03;5.50;;;;;15.60;100960.00;;;;5009768;28;20193;-84
2021/05/12 04:54:12;;;;;;;7.20;5.50;;;;;15.60;100958.00;;;;5014777;28;20204;-83
2021/05/12 04:56:41;;;;;;;6.43;5.20;;;;;15.50;100963.00;;;;5014645;28;20689;-82
2021/05/12 04:59:27;;;;;;;7.78;4.97;;;;;15.50;100969.00;;;;5028005;28;20211;-81
2021/05/12 05:04:58;;;;;;;6.03;4.25;;;;;15.60;100967.00;;;;5026847;28;20206;-81
2021/05/12 05:07:43;;;;;;;6.13;4.55;;;;;15.60;100973.00;;;;5021627;28;20200;-81
2021/05/12 05:13:52;;;;;;;5.97;3.85;;;;;15.70;100972.00;;;;5024560;28;20254;-81
2021/05/12 05:16:19;;;;;;;7.68;4.82;;;;;15.70;100974.00;;;;5027807;28;20246;-82
2021/05/12 05:18:48;;;;;;;6.32;4.85;;;;;15.80;100978.00;;;;5030202;28;20686;-82
2021/05/12 05:21:15;;;;;;;5.82;4.40;;;;;15.80;100969.00;;;;5027048;28;20208;-82
2021/05/12 05:24:01;;;;;;;5.30;4.18;;;;;15.80;100972.00;;;;5032064;28;20204;-81
2021/05/12 05:30:09;;;;;;;6.30;4.53;;;;;15.90;100973.00;;;;5023150;28;20239;-81
2021/05/12 05:32:58;;;;;;;8.23;4.63;;;;;16.00;100983.00;;;;5029730;28;20208;-82
2021/05/12 05:35:43;;;;;;;9.25;4.65;;;;;16.00;100978.00;;;;5033291;28;20216;-82
2021/05/12 05:38:29;;;;;;;6.40;4.88;;;;;16.10;100988.00;;;;5022828;28;20205;-82
2021/05/12 05:41:14;;;;;;;6.32;4.78;;;;;16.20;100984.00;;;;5032379;28;20246;-82
2021/05/12 05:43:42;;;;;;;5.25;4.53;;;;;16.30;100990.00;;;;5029297;28;20227;-82
2021/05/12 05:48:55;;;;;;;7.60;5.80;;;;;16.40;100985.00;;;;5025007;28;20665;-82
2021/05/12 05:54:06;;;;;;;5.57;4.32;;;;;16.60;100985.00;;;;5031593;28;20696;-82
2021/05/12 06:02:40;;;;;;;6.70;4.53;;;;;16.70;100976.00;;;;5021164;28;20591;-82
2021/05/12 06:05:26;;;;;;;6.50;4.88;;;;;16.70;100977.00;;;;5032293;28;20290;-82
2021/05/12 06:08:12;;;;;;;7.32;5.07;;;;;16.80;100978.00;;;;5032652;28;20227;-82
2021/05/12 06:10:57;;;;;;;5.90;4.97;;;;;16.90;100979.00;;;;5032287;28;20208;-83
2021/05/12 06:16:09;;;;;;;8.25;4.80;;;;;17.10;100978.00;;;;5032441;28;20632;-83
2021/05/12 06:18:35;;;;;;;6.45;4.85;;;;;17.20;100984.00;;;;5031339;28;20702;-83
2021/05/12 06:21:03;;;;;;;8.00;4.53;;;;;17.20;100975.00;;;;5024689;28;20196;-82
2021/05/12 06:26:16;;;;;;;5.72;3.83;;;;;17.30;100981.00;;;;5030546;28;20258;-83
2021/05/12 06:29:01;;;;;;;8.27;3.35;;;;;17.30;100985.00;;;;5022755;28;20255;-84
2021/05/12 06:31:47;;;;;;;7.30;3.08;;;;;17.50;100983.00;;;;5024466;28;20205;-83
2021/05/12 06:34:51;;;;;;;5.65;2.53;;;;;17.40;100986.00;;;;5033690;28;20200;-83
2021/05/12 06:37:38;;;;;;;3.47;2.35;;;;;17.60;100985.00;;;;5028451;28;20674;-82
2021/05/12 06:43:08;;;;;;;5.70;2.47;;;;;17.80;100997.00;;;;5040718;28;20273;-82
2021/05/12 06:46:13;;;;;;;6.85;2.80;;;;;17.70;100996.00;;;;5020381;28;20216;-83
2021/05/12 06:51:43;;;;;;;7.88;3.10;;;;;17.90;100991.00;;;;5028763;28;20635;-86
2021/05/12 06:54:29;;;;;;;6.20;2.47;;;;;17.90;100992.00;;;;5025053;28;20201;-85
2021/05/12 06:56:56;;;;;;;4.40;2.00;;;;;18.10;100995.00;;;;5009870;28;20220;-85
2021/05/12 07:00:00;;;;;;;6.00;2.28;;;;;18.10;100993.00;;;;5010118;28;20192;-85
2021/05/12 07:02:46;;;;;;;3.88;1.98;;;;;18.30;101006.00;;;;5025324;28;20207;-85
2021/05/12 07:05:31;;;;;;;4.68;2.50;;;;;18.30;100992.00;;;;5011639;28;20192;-85
2021/05/12 07:07:58;;;;;;;3.80;1.77;;;;;18.50;100992.00;;;;5011017;28;20221;-85
2021/05/12 07:13:50;;;;;;;5.00;1.45;;;;;18.60;101003.00;;;;5011357;28;20203;-86
2021/05/12 07:16:17;;;;;;;3.17;1.52;;;;;18.70;101001.00;;;;5023880;28;20189;-85
2021/05/12 07:22:06;;;;;;;3.00;1.30;;;;;18.80;101002.00;;;;5029675;28;20577;-85
2021/05/12 07:24:52;;;;;;;3.90;1.65;;;;;18.90;100999.00;;;;5030661;28;20201;-86
2021/05/12 07:33:27;;;;;;;2.50;1.10;;;;;19.00;100996.00;;;;5018680;28;20246;-81
2021/05/12 07:36:32;;;;;;;3.50;1.00;;;;;19.00;101008.00;;;;5017766;28;20223;-82
2021/05/12 07:38:58;;;;;;;6.85;1.45;;;;;19.10;101001.00;;;;5018349;28;20208;-79
2021/05/12 07:41:25;;;;;;;4.05;1.83;;;;;19.20;100995.00;;;;5021255;28;20197;-80
2021/05/12 07:43:52;;;;;;;4.80;1.55;;;;;19.30;101000.00;;;;5020195;28;20209;-79
2021/05/12 07:46:56;;;;;;;3.80;1.27;;;;;19.30;100994.00;;;;5026555;28;20219;-80
2021/05/12 07:50:00;;;;;;;3.08;1.23;;;;;19.30;101004.00;;;;5028998;28;20289;-80
2021/05/12 07:55:31;;;;;;;3.70;1.35;;;;;19.50;101008.00;;;;5027856;28;20298;-79
2021/05/12 07:57:58;;;;;;;5.45;0.95;;;;;19.70;101009.00;;;;5028338;28;20218;-80
2021/05/12 08:00:45;;;;;;;5.47;1.40;;;;;19.80;101013.00;;;;5029392;28;20192;-80
2021/05/12 08:03:31;;;;;;;3.75;0.65;;;;;20.00;101011.00;;;;5028078;28;20203;-80
2021/05/12 08:05:57;;;;;;;4.03;1.40;;;;;20.10;101012.00;;;;5029406;28;20192;-80
2021/05/12 08:08:44;;;;;;;3.28;0.98;;;;;20.20;101012.00;;;;5026923;28;20725;-81
2021/05/12 08:11:29;;;;;;;4.05;1.20;;;;;20.20;101013.00;;;;5029044;28;20229;-79
2021/05/12 08:17:00;;;;;;;4.40;1.38;;;;;20.60;101016.00;;;;5017133;28;20207;-79
2021/05/12 08:19:26;;;;;;;5.85;1.52;;;;;20.60;101009.00;;;;5022393;28;20287;-79
2021/05/12 08:21:53;;;;;;;5.72;1.40;;;;;20.70;101009.00;;;;5008510;28;20751;-80
2021/05/12 08:24:21;;;;;;;5.15;1.50;;;;;20.80;100997.00;;;;5008367;28;20605;-80
2021/05/12 08:27:06;;;;;;;3.03;1.35;;;;;20.70;101006.00;;;;5009050;28;20923;-80
2021/05/12 08:29:36;;;;;;;5.25;1.40;;;;;20.90;100997.00;;;;5023463;28;20221;-79
2021/05/12 08:32:05;;;;;;;5.00;1.38;;;;;21.00;101005.00;;;;5027871;28;20208;-80
2021/05/12 08:37:36;;;;;;;6.78;1.58;;;;;21.20;100999.00;;;;5010529;28;20215;-79
2021/05/12 08:40:22;;;;;;;8.10;1.45;;;;;21.30;100995.00;;;;5024824;28;20204;-79
2021/05/12 08:43:08;;;;;;;4.55;1.73;;;;;21.40;101003.00;;;;5017767;28;20204;-78
2021/05/12 08:45:54;;;;;;;10.25;1.20;;;;;21.30;101006.00;;;;5024666;28;20608;-79
2021/05/12 08:48:23;;;;;;;6.13;1.15;;;;;21.40;101007.00;;;;5011319;28;20785;-78
2021/05/12 08:53:35;;;;;;;2.33;0.70;;;;;21.60;101000.00;;;;5022497;28;20299;-80
2021/05/12 08:59:08;;;;;;;4.68;1.15;;;;;21.70;101008.00;;;;5020608;28;20286;-78
2021/05/12 09:01:35;;;;;;;3.88;1.23;;;;;22.00;101011.00;;;;5014520;28;20195;-78
2021/05/12 09:06:49;;;;;;;5.20;1.17;;;;;22.20;101016.00;;;;5027010;28;20215;-81
2021/05/12 09:12:02;;;;;;;5.82;1.13;;;;;22.50;101011.00;;;;5013891;28;20254;-79
2021/05/12 09:14:48;;;;;;;4.43;1.13;;;;;22.60;101007.00;;;;5020906;28;20200;-78
2021/05/12 09:17:15;;;;;;;3.75;0.88;;;;;22.70;101010.00;;;;5009376;28;20235;-79
2021/05/12 09:20:19;;;;;;;9.13;2.05;;;;;22.70;101015.00;;;;5025220;28;20221;-78
2021/05/12 09:23:04;;;;;;;4.38;1.00;;;;;22.90;101003.00;;;;5028632;28;20772;-78
2021/05/12 09:25:33;;;;;;;3.17;1.00;;;;;23.10;101004.00;;;;5009671;28;20200;-78
2021/05/12 09:34:13;;;;;;;3.42;1.05;;;;;23.20;101020.00;;;;5010080;28;20256;-78
2021/05/12 09:36:39;;;;;;;4.53;1.13;;;;;23.10;101014.00;;;;5028233;28;20196;-78
2021/05/12 09:39:28;;;;;;;7.90;1.85;;;;;23.10;101016.00;;;;5024314;28;20192;-78
2021/05/12 09:41:55;;;;;;;3.53;1.13;;;;;23.00;101016.00;;;;5028769;28;20262;-78
2021/05/12 09:44:29;;;;;;;4.30;1.27;;;;;22.90;101021.00;;;;5023876;28;20810;-78
2021/05/12 09:50:14;;;;;;;2.10;0.82;;;;;22.80;101008.00;;;;5028161;28;20211;-77
2021/05/12 09:55:47;;;;;;;3.58;1.38;;;;;23.00;100995.00;;;;5028253;28;20203;-78
2021/05/12 09:58:15;;;;;;;4.35;1.00;;;;;23.10;101007.00;;;;5027884;28;20239;-79
2021/05/12 10:03:33;;;;;;;4.55;1.40;;;;;23.20;101002.00;;;;5008191;28;20208;-77
2021/05/12 10:06:02;;;;;;;3.40;1.25;;;;;23.30;101005.00;;;;5010456;28;20212;-78
2021/05/12 10:09:06;;;;;;;2.80;1.40;;;;;23.30;100999.00;;;;5011522;28;20235;-79
2021/05/12 10:11:51;;;;;;;3.00;0.90;;;;;23.50;101003.00;;;;5011955;28;20200;-78
2021/05/12 10:14:38;;;;;;;4.43;0.93;;;;;23.50;101012.00;;;;5011896;28;20244;-79
2021/05/12 10:17:07;;;;;;;4.05;1.33;;;;;23.70;101000.00;;;;5011569;28;20589;-78
2021/05/12 10:19:35;;;;;;;4.32;1.20;;;;;23.80;101015.00;;;;5026250;28;20234;-77
2021/05/12 10:22:21;;;;;;;3.03;1.20;;;;;23.80;101015.00;;;;5031201;28;20201;-78
2021/05/12 10:27:34;;;;;;;2.85;1.27;;;;;23.70;101020.00;;;;5010804;28;20718;-78
2021/05/12 10:30:04;;;;;;;5.50;1.10;;;;;23.60;101015.00;;;;5011085;28;20229;-78
2021/05/12 10:32:53;;;;;;;3.15;1.00;;;;;23.70;101012.00;;;;5010676;28;20204;-78
2021/05/12 10:38:31;;;;;;;3.72;1.35;;;;;23.80;101009.00;;;;5011024;28;20686;-78
2021/05/12 10:43:49;;;;;;;3.30;1.40;;;;;23.90;101007.00;;;;5011126;28;20211;-78
2021/05/12 10:46:29;;;;;;;2.20;1.00;;;;;23.80;101004.00;;;;5019211;28;20215;-78
2021/05/12 10:48:57;;;;;;;2.92;0.80;;;;;23.90;101010.00;;;;5027189;28;20225;-80
2021/05/12 10:57:49;;;;;;;2.50;0.80;;;;;23.70;101009.00;;;;5019531;28;20273;-78
2021/05/12 11:00:35;;;;;;;2.53;0.98;;;;;23.80;101010.00;;;;5010995;28;20609;-78
2021/05/12 11:09:12;;;;;;;3.90;1.05;;;;;24.00;101005.00;;;;5016758;28;20291;-80
2021/05/12 11:12:06;;;;;;;1.50;1.10;;;;;24.10;101009.00;;;;5022450;28;20201;-79
2021/05/12 11:26:47;;;;;;;2.85;1.30;;;;;24.10;101001.00;;;;5026832;28;20208;-80
2021/05/12 11:32:03;;;;;;;3.47;1.13;;;;;24.20;101000.00;;;;5011756;28;20219;-82
2021/05/12 11:40:38;;;;;;;5.55;1.30;;;;;24.30;100996.00;;;;5015238;28;20239;-80
2021/05/12 11:43:05;;;;;;;5.80;1.85;;;;;24.30;100994.00;;;;5018581;28;20201;-80
2021/05/12 11:48:55;;;;;;;2.47;1.23;;;;;24.10;100995.00;;;;5013646;28;20223;-78
2021/05/12 11:51:41;;;;;;;4.97;1.60;;;;;24.10;100996.00;;;;5022261;28;20678;-78
2021/05/12 11:54:32;;;;;;;3.28;1.20;;;;;24.20;100994.00;;;;5021638;28;20651;-79
2021/05/12 11:59:46;;;;;;;2.58;1.23;;;;;24.40;100990.00;;;;5028975;28;20199;-79
2021/05/12 12:02:31;;;;;;;3.63;1.13;;;;;24.50;100997.00;;;;5010071;28;20209;-79
2021/05/12 12:05:16;;;;;;;5.57;0.90;;;;;24.40;100993.00;;;;5020276;28;20200;-79
2021/05/12 12:11:05;;;;;;;2.20;1.20;;;;;24.70;100992.00;;;;5023986;28;20243;-79
2021/05/12 12:13:33;;;;;;;2.13;1.05;;;;;24.80;100996.00;;;;5028660;28;20709;-79
2021/05/12 12:16:00;;;;;;;2.50;1.23;;;;;24.80;100986.00;;;;5019347;28;20200;-79
2021/05/12 12:21:13;;;;;;;3.03;1.08;;;;;24.80;100989.00;;;;5027034;28;20203;-78
2021/05/12 12:23:42;;;;;;;3.88;1.38;;;;;24.80;100985.00;;;;5009830;28;20205;-79
2021/05/12 12:26:14;;;;;;;4.97;1.60;;;;;24.80;100987.00;;;;5013267;28;20205;-78
2021/05/12 12:28:43;;;;;;;3.95;1.35;;;;;24.90;100994.00;;;;5020478;28;20221;-78
2021/05/12 12:31:14;;;;;;;2.50;1.30;;;;;24.90;100996.00;;;;5018585;28;20215;-77
2021/05/12 12:33:41;;;;;;;4.40;1.33;;;;;24.90;100985.00;;;;5025125;28;20258;-78
2021/05/12 12:42:01;;;;;;;4.45;1.13;;;;;24.70;100979.00;;;;5028265;28;20234;-78
2021/05/12 12:45:05;;;;;;;3.47;0.95;;;;;24.60;100978.00;;;;5027467;28;20228;-78
2021/05/12 12:48:10;;;;;;;6.32;1.50;;;;;24.70;100985.00;;;;5008141;28;20247;-78
2021/05/12 12:50:56;;;;;;;3.72;1.10;;;;;24.70;100985.00;;;;5007769;28;20566;-78
2021/05/12 12:53:28;;;;;;;6.65;1.50;;;;;24.80;100988.00;;;;5026650;28;20208;-78
2021/05/12 12:56:24;;;;;;;4.35;0.80;;;;;24.80;100987.00;;;;5013688;28;20576;-79
2021/05/12 12:59:06;;;;;;;2.25;1.00;;;;;24.80;100978.00;;;;5013780;28;20192;-79
2021/05/12 13:01:37;;;;;;;5.30;1.13;;;;;24.90;100975.00;;;;5018894;28;20196;-79
2021/05/12 13:04:36;;;;;;;3.20;1.30;;;;;24.90;100973.00;;;;5026642;28;20693;-80
2021/05/12 13:10:27;;;;;;;2.35;0.90;;;;;25.10;100976.00;;;;5008499;28;20624;-78
2021/05/12 13:12:54;;;;;;;2.45;0.82;;;;;25.20;100976.00;;;;5012071;28;20201;-79
2021/05/12 13:21:58;;;;;;;3.40;0.90;;;;;25.60;100975.00;;;;5011064;28;20236;-79
2021/05/12 13:33:20;;;;;;;2.42;0.80;;;;;26.30;100966.00;;;;5013012;28;20734;-79
2021/05/12 13:36:06;;;;;;;4.07;1.25;;;;;26.60;100964.00;;;;5022852;28;21084;-78
2021/05/12 13:39:10;;;;;;;2.53;0.73;;;;;26.70;100972.00;;;;5029010;28;20208;-78
2021/05/12 13:41:56;;;;;;;4.40;0.70;;;;;26.90;100968.00;;;;5027558;28;20203;-80
2021/05/12 13:44:41;;;;;;;1.83;0.63;;;;;26.80;100966.00;;;;5031520;28;20300;-80
2021/05/12 13:47:08;;;;;;;3.20;0.85;;;;;27.00;100967.00;;;;5016302;28;20215;-79
2021/05/12 13:49:34;;;;;;;3.50;0.90;;;;;27.00;100958.00;;;;5016444;28;20217;-78
2021/05/12 13:52:26;;;;;;;5.25;1.08;;;;;27.00;100958.00;;;;5027934;28;20670;-78
2021/05/12 13:57:55;;;;;;;6.97;1.00;;;;;27.70;100956.00;;;;5029854;28;20357;-79
2021/05/12 14:05:53;;;;;;;5.22;0.98;;;;;28.60;100941.00;;;;5031601;28;20265;-78
2021/05/12 14:22:48;;;;;;;1.67;0.60;;;;;29.40;100931.00;;;;5031193;28;20216;-80
2021/05/12 14:25:16;;;;;;;3.45;0.70;;;;;29.50;100930.00;;;;5030564;28;20354;-79
2021/05/12 14:28:25;;;;;;;1.92;0.60;;;;;29.30;100937.00;;;;5029926;28;20629;-79
2021/05/12 14:31:29;;;;;;;2.75;0.88;;;;;29.20;100939.00;;;;5030515;28;20295;-79
2021/05/12 14:37:01;;;;;;;2.70;0.68;;;;;28.80;100935.00;;;;5010552;28;20212;-80
2021/05/12 14:39:29;;;;;;;2.72;1.15;;;;;28.60;100929.00;;;;5010695;28;20220;-80
2021/05/12 14:48:07;;;;;;;2.85;0.60;;;;;28.70;100926.00;;;;5011458;28;20220;-79
2021/05/12 14:56:48;;;;;;;1.67;0.85;;;;;30.00;100934.00;;;;5030443;28;20257;-79
2021/05/12 15:09:02;;;;;;;2.45;0.80;;;;;32.60;100935.00;;;;5029048;28;20223;-79
2021/05/12 15:26:28;;;;;;;2.97;0.90;;;;;32.60;100935.00;;;;5038346;28;20230;-80
2021/05/12 15:31:40;;;;;;;2.17;0.77;;;;;31.80;100930.00;;;;5025398;28;20231;-80
2021/05/12 15:34:07;;;;;;;3.05;0.60;;;;;31.50;100927.00;;;;5037925;28;20268;-80
2021/05/12 15:36:52;;;;;;;2.00;0.68;;;;;31.10;100934.00;;;;5041576;28;20204;-80
2021/05/12 15:39:38;;;;;;;2.22;0.60;;;;;30.70;100939.00;;;;5019617;28;20192;-81
2021/05/12 15:42:05;;;;;;;1.63;0.60;;;;;30.30;100940.00;;;;5025525;28;20200;-78
2021/05/12 15:44:33;;;;;;;2.08;0.70;;;;;29.90;100932.00;;;;5027762;28;20225;-81
2021/05/12 15:47:00;;;;;;;1.65;0.68;;;;;29.60;100936.00;;;;5018158;28;20603;-81
2021/05/12 15:49:26;;;;;;;5.60;1.00;;;;;29.20;100941.00;;;;5027394;28;20307;-81
2021/05/12 15:52:13;;;;;;;2.88;0.50;;;;;28.70;100940.00;;;;5029455;28;20215;-81
2021/05/12 15:54:39;;;;;;;3.65;0.60;;;;;28.50;100942.00;;;;5017065;28;20278;-80
2021/05/12 15:57:25;;;;;;;2.63;0.50;;;;;28.20;100948.00;;;;5025276;28;20679;-80
2021/05/12 16:03:15;;;;;;;3.70;0.93;;;;;27.60;100957.00;;;;5024469;28;20203;-80
2021/05/12 16:06:00;;;;;;;2.00;0.93;;;;;27.20;100970.00;;;;5023964;28;20200;-80
2021/05/12 16:08:50;;;;;;;4.35;1.13;;;;;26.60;100985.00;;;;5028668;28;20841;-79
2021/05/12 16:14:02;;;;;;;1.48;1.20;;;;;25.90;100985.00;;;;5027777;28;20246;-81
2021/05/12 16:19:14;;;;;;;2.85;1.20;;;;;25.10;100990.00;;;;5026328;28;20305;-81
2021/05/12 16:22:00;;;;;;;3.53;1.30;;;;;24.50;100976.00;;;;5015708;28;20204;-79
2021/05/12 16:24:27;;;;;;;2.88;1.15;;;;;24.30;100990.00;;;;5013520;28;20207;-79
2021/05/12 16:26:54;;;;;;;3.35;1.38;;;;;24.00;100984.00;;;;5026868;28;20208;-80
2021/05/12 16:29:41;;;;;;;2.42;1.60;;;;;23.50;100980.00;;;;5020601;28;20220;-80
2021/05/12 16:35:50;;;;;;;2.78;1.40;;;;;22.80;100988.00;;;;5007735;28;20246;-79
2021/05/12 16:38:17;;;;;;;4.32;1.48;;;;;22.60;100984.00;;;;5008431;28;20629;-80
2021/05/12 16:41:02;;;;;;;1.95;1.60;;;;;22.40;100995.00;;;;5012850;28;20205;-81
2021/05/12 16:43:48;;;;;;;4.78;1.45;;;;;22.00;100993.00;;;;5017236;28;20367;-79
2021/05/12 16:46:52;;;;;;;2.22;1.67;;;;;21.90;100999.00;;;;5026233;28;20573;-81
2021/05/12 16:49:41;;;;;;;1.60;1.17;;;;;21.70;100993.00;;;;5010489;28;20770;-81
2021/05/12 16:52:08;;;;;;;3.63;1.27;;;;;21.70;101000.00;;;;5009115;28;20225;-80
2021/05/12 16:54:53;;;;;;;2.30;1.30;;;;;21.40;100989.00;;;;5015260;28;20201;-79
2021/05/12 16:57:20;;;;;;;2.30;1.00;;;;;21.40;100998.00;;;;5018408;28;20227;-79
2021/05/12 17:02:50;;;;;;;1.75;0.90;;;;;21.20;100987.00;;;;5015785;28;20289;-78
2021/05/12 17:05:18;;;;;;;1.60;1.00;;;;;21.10;100986.00;;;;5014317;28;20193;-79
2021/05/12 17:10:29;;;;;;;2.00;0.70;;;;;20.90;100984.00;;;;5016184;28;20289;-79
2021/05/12 17:13:14;;;;;;;5.22;0.93;;;;;20.80;100987.00;;;;5025022;28;20628;-79
2021/05/12 17:16:03;;;;;;;2.03;1.00;;;;;20.70;100985.00;;;;5029799;28;20737;-79
2021/05/12 17:18:29;;;;;;;2.08;0.90;;;;;20.60;100985.00;;;;5014145;28;20642;-79
2021/05/12 17:20:57;;;;;;;1.52;0.70;;;;;20.60;100991.00;;;;5032886;28;20196;-79
2021/05/12 17:23:43;;;;;;;1.42;0.77;;;;;20.50;100988.00;;;;5026957;28;20208;-79
2021/05/12 17:31:39;;;;;;;3.42;1.05;;;;;20.40;100991.00;;;;5031487;28;20233;-80
2021/05/12 17:37:11;;;;;;;1.73;0.63;;;;;20.20;100975.00;;;;5031622;28;20206;-80
2021/05/12 17:39:57;;;;;;;1.73;0.63;;;;;20.30;100976.00;;;;5032741;28;20350;-81
2021/05/12 17:45:28;;;;;;;1.40;0.47;;;;;20.30;100968.00;;;;5031627;28;20604;-81
2021/05/12 17:48:15;;;;;;;3.97;0.93;;;;;20.30;100963.00;;;;5021137;28;20212;-80
2021/05/12 17:53:47;;;;;;;2.58;0.70;;;;;20.30;100954.00;;;;5026793;28;20211;-81
2021/05/12 17:56:14;;;;;;;3.90;1.08;;;;;20.30;100960.00;;;;5024954;28;20213;-82
2021/05/12 17:58:42;;;;;;;2.33;0.50;;;;;20.30;100955.00;;;;5015497;28;20201;-82
2021/05/12 18:01:09;;;;;;;2.00;0.60;;;;;20.30;100953.00;;;;5027020;28;20569;-82
2021/05/12 18:09:44;;;;;;;1.63;0.90;;;;;20.30;100976.00;;;;5022648;28;20270;-79
2021/05/12 18:12:24;;;;;;;2.80;0.93;;;;;20.20;100971.00;;;;5022783;28;20220;-81
2021/05/12 18:17:34;;;;;;;3.97;0.60;;;;;20.10;100991.00;;;;5014687;28;20242;-82
2021/05/12 18:20:20;;;;;;;1.67;0.75;;;;;20.10;100993.00;;;;5011327;28;20307;-81
2021/05/12 18:25:51;;;;;;;3.20;0.65;;;;;19.90;100997.00;;;;5014653;28;20639;-82
2021/05/12 18:28:37;;;;;;;3.13;0.80;;;;;19.80;100998.00;;;;5021723;28;20386;-83
2021/05/12 18:34:29;;;;;;;2.22;0.40;;;;;19.70;101001.00;;;;5011867;28;20200;-84
2021/05/12 18:36:56;;;;;;;2.75;0.50;;;;;19.80;101007.00;;;;5012251;28;20254;-82
2021/05/12 18:45:17;;;;;;;4.28;1.40;;;;;19.60;101001.00;;;;5023972;28;20285;-83